• Join FlightAware (Why Join?)
  • Login
  • US Flag 
10:32AM EDT


 

Airport Tracker/Info


-or-


 

Live Flight TrackerFlight Track Log ✈ RPA3228 ✈ 08-Jul-2013 ✈ KDCA - KBUF

Flight Track Log - Related Links

Times and Time Zones

All times are in EDT time to prevent confusion due to time zone crossing. See the RPA3228 flight status page for this flight to view local times or setup timezone preferences in your user account.

Time Position Orientation Groundspeed Altitude Reporting Facility
EDT Latitude Longitude Course Direction KTS MPH feet Rate Location/Type
11:43AM 38.9333 -77.1167 323° Northwest 206 237 4,600  Level Potomac TRACON
11:44AM 38.9667 -77.1667 311° West 206 237 7,800 3,000 Climbing Potomac TRACON
11:45AM 38.9833 -77.2333 288° West 222 255 10,700 2,820 Climbing Potomac TRACON
11:46AM 39.0167 -77.3167 297° West 234 269 13,500 2,760 Climbing Potomac TRACON
11:47AM 39.0667 -77.3667 322° Northwest 283 326 16,300 1,080 Climbing Potomac TRACON
11:49AM 39.2708 -77.3986 353° North 336 387 17,000 180 Climbing Washington Center
11:50AM 39.3789 -77.4147 353° North 378 435 17,000 720 Level Washington Center
11:51AM 39.4892 -77.4336 352° North 394 453 18,500 2,400 Climbing Washington Center
11:52AM 39.5950 -77.4631 348° North 394 453 21,800 2,640 Climbing Washington Center
11:53AM 39.7317 -77.5011 348° North 369 425 25,000 1,740 Climbing New York Center
11:54AM 39.8389 -77.5222 351° North 374 430 26,000 480 Climbing New York Center
11:55AM 39.9533 -77.5631 345° North 391 450 26,000  Level New York Center
11:56AM 40.0719 -77.6044 345° North 421 484 26,000  Level New York Center
11:57AM 40.1925 -77.6461 345° North 436 502 26,000  Level New York Center
11:58AM 40.3131 -77.6881 345° North 441 507 26,000  Level New York Center
12:01PM 40.5706 -77.7786 345° North 457 526 26,000  Level Cleveland Center
12:02PM 40.6906 -77.8228 344° North 457 526 26,000  Level Cleveland Center
12:03PM 40.8144 -77.8669 345° North 457 526 26,000  Level Cleveland Center
12:04PM 40.9364 -77.9086 346° North 457 526 26,000  Level Cleveland Center
12:05PM 41.0478 -77.9481 345° North 452 520 26,000  Level Cleveland Center
12:06PM 41.1594 -77.9906 344° North 432 497 26,000  Level Cleveland Center
12:07PM 41.2708 -78.0303 345° North 417 480 26,000  Level Cleveland Center
12:08PM 41.3717 -78.0650 346° North 411 473 26,000  Level Cleveland Center
12:09PM 41.4767 -78.1053 344° North 405 466 26,000  Level Cleveland Center
12:10PM 41.5881 -78.1456 345° North 400 460 26,000 -660 Level Cleveland Center
12:11PM 41.6953 -78.1833 345° North 400 460 24,700 -1,620 Descending Cleveland Center
12:12PM 41.8025 -78.2239 344° North 400 460 22,800 -1,980 Descending Cleveland Center
12:13PM 41.9053 -78.2647 344° North 400 460 20,800 -1,980 Descending Cleveland Center
12:14PM 42.0061 -78.3003 345° North 389 448 18,900 -1,800 Descending Cleveland Center
12:15PM 42.1047 -78.3358 345° North 376 433 17,300 -1,860 Descending Cleveland Center
12:16PM 42.2119 -78.3742 345° North 366 421 15,200 -1,920 Descending Cleveland Center
12:17PM 42.3064 -78.4100 344° North 360 414 13,500 -1,500 Descending Cleveland Center
12:18PM 42.3922 -78.4325 349° North 342 394 12,200 -1,500 Descending Cleveland Center
12:19PM 42.4822 -78.4464 354° North 331 381 10,600 -1,380 Descending Cleveland Center
12:20PM 42.5636 -78.4575 354° North 313 360 9,500 -1,260 Descending Cleveland Center
12:21PM 42.6408 -78.4692 354° North 295 339 8,100 -1,440 Descending Cleveland Center
12:22PM 42.7164 -78.4836 352° North 279 321 6,700 -1,560 Descending Cleveland Center
12:23PM 42.7914 -78.4953 353° North 274 315 5,000 -1,380 Descending Cleveland Center
12:24PM 42.8647 -78.5069 353° North 274 315 4,000 -540 Descending Cleveland Center
12:25PM 42.9336 -78.5161 354° North 267 307 4,000 -60 Level Cleveland Center
12:26PM 43.0025 -78.5278 353° North 258 297 3,900 -480 Descending Cleveland Center
12:28PM 43.0167 -78.6167 282° West 175 201 2,600 -780 Descending Buffalo TRACON
12:29PM 42.9833 -78.6667 228° Southwest 155 178 1,700 -840 Descending Buffalo TRACON
12:30PM 42.9667 -78.7000 236° Southwest 137 158 1,000 -720 Descending Buffalo TRACON